createdAt,value
2022-12-05T08:11:19.874Z,7.30
2022-12-05T08:12:53.011Z,7.20
2022-12-05T08:14:26.164Z,7.40
2022-12-05T08:16:02.593Z,7.50
2022-12-05T08:17:35.676Z,7.40
2022-12-05T08:19:12.907Z,7.50
2022-12-05T08:20:47.344Z,7.50
2022-12-05T08:22:20.359Z,7.60
2022-12-05T08:23:54.211Z,7.60
2022-12-05T08:25:27.756Z,7.70
2022-12-05T08:27:00.771Z,7.70
2022-12-05T08:28:35.079Z,7.70
2022-12-05T08:30:09.052Z,7.70
2022-12-05T08:31:44.406Z,7.70
2022-12-05T08:33:17.456Z,7.70
2022-12-05T08:34:50.554Z,7.80
2022-12-05T08:36:24.993Z,7.70
2022-12-05T08:37:58.087Z,7.80
2022-12-05T08:39:37.991Z,7.80
2022-12-05T08:41:13.401Z,7.80
2022-12-05T08:42:46.475Z,7.80
2022-12-05T08:44:20.045Z,7.80
2022-12-05T08:45:54.093Z,7.80
2022-12-05T08:47:27.605Z,7.80
2022-12-05T08:49:00.859Z,7.80
2022-12-05T08:50:34.044Z,7.90
2022-12-05T08:52:08.467Z,7.90
2022-12-05T08:53:44.676Z,7.90
2022-12-05T08:55:18.096Z,7.90
2022-12-05T08:56:52.600Z,8.00
2022-12-05T08:58:25.667Z,8.00
2022-12-05T08:59:59.970Z,8.00
2022-12-05T20:37:19.982Z,7.90
2022-12-05T20:38:58.292Z,5.20
2022-12-05T20:40:31.397Z,5.30
2022-12-05T20:42:04.651Z,5.30
2022-12-05T20:43:38.022Z,5.20
2022-12-05T20:45:11.523Z,5.20
2022-12-05T20:46:44.853Z,5.20
2022-12-05T20:48:17.918Z,5.30
2022-12-05T20:49:50.959Z,5.30
2022-12-05T20:51:26.217Z,5.20
2022-12-05T20:52:59.241Z,5.20
2022-12-05T20:54:33.707Z,5.30
2022-12-05T20:56:08.965Z,5.30
2022-12-05T20:57:41.999Z,5.20
2022-12-05T20:59:15.471Z,5.20
2022-12-05T21:00:48.518Z,5.20
2022-12-05T21:02:21.595Z,5.20
2022-12-05T21:03:55.438Z,5.30
2022-12-05T21:05:28.601Z,5.30
2022-12-05T21:07:01.663Z,5.30
2022-12-05T21:08:34.680Z,5.20
2022-12-05T21:10:10.404Z,5.10
2022-12-05T21:11:44.140Z,5.10
2022-12-05T21:13:17.355Z,5.10
2022-12-05T21:14:52.111Z,5.00
2022-12-05T21:16:25.568Z,5.00
2022-12-05T21:17:59.110Z,5.00
2022-12-05T21:19:32.220Z,5.00
2022-12-05T21:21:07.608Z,5.00
2022-12-05T21:22:40.686Z,5.00
2022-12-05T21:24:13.783Z,5.00
2022-12-05T21:25:48.192Z,5.00
2022-12-05T21:27:21.263Z,5.00
2022-12-05T21:28:54.710Z,5.00
2022-12-05T21:30:27.849Z,5.00
2022-12-05T21:32:00.943Z,5.00
2022-12-05T21:33:34.149Z,5.00
2022-12-05T21:35:07.549Z,5.00
2022-12-05T21:36:40.612Z,5.00
2022-12-05T21:38:13.660Z,5.00
2022-12-05T21:39:46.712Z,5.00
2022-12-05T21:41:21.135Z,5.00
2022-12-05T21:42:54.428Z,5.10
2022-12-05T21:44:27.448Z,5.10
2022-12-05T21:46:00.583Z,5.10
2022-12-05T21:47:34.693Z,5.10
2022-12-05T21:49:07.864Z,5.10
2022-12-05T21:50:43.233Z,5.10
2022-12-05T21:52:16.317Z,5.10
2022-12-05T21:53:49.436Z,5.10
2022-12-05T21:55:22.495Z,5.00
2022-12-05T21:56:56.937Z,5.10
2022-12-05T21:58:30.029Z,5.10
2022-12-05T22:00:03.303Z,5.00
2022-12-05T22:01:37.905Z,5.00
2022-12-05T22:03:15.471Z,5.00
2022-12-05T22:04:49.501Z,5.00
2022-12-05T22:06:22.710Z,5.00
2022-12-05T22:07:55.815Z,5.00
2022-12-05T22:09:28.905Z,5.00
2022-12-05T22:11:06.678Z,5.00
2022-12-05T22:12:41.086Z,5.00
2022-12-05T22:14:14.209Z,5.00
2022-12-05T22:15:47.241Z,5.00
2022-12-05T22:17:20.538Z,5.00
2022-12-05T22:18:53.570Z,5.00
2022-12-05T22:20:26.657Z,5.00
2022-12-05T22:21:59.706Z,5.10
2022-12-05T22:23:32.807Z,5.10
2022-12-05T22:25:06.525Z,5.00
2022-12-05T22:26:39.666Z,5.00
2022-12-05T22:28:14.035Z,5.00
2022-12-05T22:29:51.323Z,5.00
2022-12-05T22:31:26.404Z,5.00
2022-12-05T22:32:59.555Z,5.00
2022-12-05T22:34:32.635Z,5.00
2022-12-05T22:36:08.164Z,5.00
2022-12-05T22:37:41.204Z,5.00
2022-12-05T22:39:14.478Z,5.00
2022-12-05T22:40:46.530Z,5.00
2022-12-05T22:42:19.634Z,5.00
2022-12-05T22:43:57.818Z,4.90
2022-12-05T22:45:30.864Z,5.00
2022-12-05T22:47:03.964Z,4.90
2022-12-05T22:48:37.367Z,4.90
2022-12-05T22:50:11.037Z,4.90
2022-12-05T22:51:44.118Z,4.80
2022-12-05T22:53:19.481Z,4.80
2022-12-05T22:54:52.584Z,4.80
2022-12-05T22:56:28.937Z,4.70
2022-12-05T22:58:01.974Z,4.60
2022-12-05T22:59:36.388Z,4.60
2022-12-05T23:01:11.118Z,4.50
2022-12-05T23:02:44.194Z,4.50
2022-12-05T23:04:17.494Z,4.60
2022-12-05T23:05:50.770Z,4.50
2022-12-05T23:07:23.836Z,4.50
2022-12-05T23:08:57.253Z,4.50
2022-12-05T23:10:29.611Z,4.60
2022-12-05T23:12:02.685Z,4.60
2022-12-05T23:13:35.865Z,4.60
2022-12-05T23:15:11.561Z,4.60
2022-12-05T23:16:44.630Z,4.60
2022-12-05T23:18:17.764Z,4.60
2022-12-05T23:19:50.823Z,4.50
2022-12-05T23:21:26.246Z,4.50
2022-12-05T23:22:59.328Z,4.50
2022-12-05T23:24:32.405Z,4.50
2022-12-05T23:26:04.570Z,4.60
2022-12-05T23:27:37.699Z,4.50
2022-12-05T23:29:13.068Z,4.60
2022-12-05T23:30:46.483Z,4.60
2022-12-05T23:32:19.531Z,4.60
2022-12-05T23:33:52.840Z,4.60
2022-12-05T23:35:25.895Z,4.60
2022-12-05T23:36:58.945Z,4.60
2022-12-05T23:38:32.080Z,4.70
2022-12-05T23:40:06.152Z,4.70
2022-12-05T23:41:39.322Z,4.70
2022-12-05T23:43:12.376Z,4.60
2022-12-05T23:44:45.949Z,4.70
2022-12-05T23:46:22.575Z,4.70
2022-12-05T23:47:56.899Z,4.70
2022-12-05T23:49:32.539Z,4.70
2022-12-05T23:51:06.905Z,4.70
2022-12-05T23:52:39.967Z,4.70
2022-12-05T23:54:13.159Z,4.70
2022-12-05T23:55:46.234Z,4.70
2022-12-05T23:57:19.620Z,4.70
2022-12-05T23:58:52.908Z,4.70
